Greenleaf, WI (54126)

3:05 PM CST on November 20, 2017 (GMT -0600)
Wrightstown-Hickory St | | Change Station

Elev 660 ft 44.33 °N, 88.17 °W | Updated 8 seconds ago

Mostly Cloudy
Mostly Cloudy
47.7 °F
Feels Like 44 °F
N
8.9
Wind Variable Wind from SSE
Gusts 11.0 mph

Today
High -- | Low -- °F
--% Chance of Precip.
Yesterday
High -- | Low -- °F
Precip. -- in
Pressure 29.59 in
Visibility 10.0 miles
Clouds Clear
Windchill 44 °F
Dew Point 34 °F
Humidity 60%
Rainfall 0.00 in
Snow Depth Not available.
6:55 AM 4:20 PM
Waxing Crescent, 5% visible
METAR KGRB 202053Z AUTO 18009KT 10SM CLR 07/01 A2957 RMK AO2 SLP018 T00720011 56040
Pressure 29.59 in
Visibility 10.0 miles
Clouds Clear
Windchill 44 °F
Dew Point 34 °F
Humidity 60%
Rainfall 0.00 in
Snow Depth Not available.
6:55 AM 4:20 PM
Waxing Crescent, 5% visible
METAR KGRB 202053Z AUTO 18009KT 10SM CLR 07/01 A2957 RMK AO2 SLP018 T00720011 56040

Get Severe Weather Alerts

Thanks for signing up!

Be on the lookout for a verification email in your inbox.

You'll start receiving the daily forecast at 6 AM.

×

10-Day Weather Forecast

Almanac

Astronomy

Nov. 20, 2017 Rise Set
Actual Time
Civil Twilight
Nautical Twilight
Astronomical Twilight
Moon
Length of Visible Light
Length of Day
Tomorrow will be .
, % of the Moon is Illuminated

Today's Extremes

State Highs State Lows

Community

WunderPhotos

Category 6

Welcome to Category 6. This is the collective home for Weather Underground's featured writeups by Dr. Jeff Masters (right), Bob Henson (left), Chris Burt, and other regular contributors.

Nearby

Air Quality

  Air Quality AQ Index Pollutant
Not available.

Snow Depth

Station Depth Elevation

Earthquake Activity

City Distance Mag. Time & Date
Minimum magnitude displayed is 2.5.

Coastal Water Temperatures

Place Temperature

Stations

Nearby Weather Stations

Station Location Temp. Windchill Dew Point Humidity Wind Precip. Elev Updated Type
                   

Watches & Warnings

There are currently no watches in effect.